createdAt,value
2019-03-30T00:01:37.499Z,9.70
2019-03-30T00:04:05.497Z,9.70
2019-03-30T00:06:33.501Z,9.80
2019-03-30T00:09:01.499Z,9.70
2019-03-30T00:11:30.709Z,9.80
2019-03-30T00:13:58.872Z,9.70
2019-03-30T00:16:26.902Z,9.60
2019-03-30T00:18:54.901Z,9.60
2019-03-30T00:21:22.885Z,9.70
2019-03-30T00:23:50.897Z,9.60
2019-03-30T00:26:18.883Z,9.70
2019-03-30T00:28:47.198Z,9.70
2019-03-30T00:31:14.875Z,9.60
2019-03-30T00:33:43.219Z,9.50
2019-03-30T00:36:11.678Z,9.50
2019-03-30T00:38:40.190Z,9.40
2019-03-30T00:41:08.176Z,9.20
2019-03-30T00:43:36.247Z,7.60
2019-03-30T00:46:04.601Z,9.00
2019-03-30T00:48:32.605Z,9.00
2019-03-30T00:51:00.586Z,8.80
2019-03-30T00:53:28.572Z,8.80
2019-03-30T00:55:56.572Z,8.70
2019-03-30T00:58:25.755Z,8.90
2019-03-30T01:00:52.590Z,8.80
2019-03-30T01:03:20.564Z,8.80
2019-03-30T01:05:48.552Z,8.80
2019-03-30T01:08:16.555Z,8.70
2019-03-30T01:10:44.536Z,8.70
2019-03-30T01:13:13.075Z,8.60
2019-03-30T01:15:41.089Z,8.50
2019-03-30T01:18:09.085Z,8.30
2019-03-30T01:20:37.063Z,8.30
2019-03-30T01:23:05.072Z,8.20
2019-03-30T01:25:33.071Z,8.20
2019-03-30T01:28:01.068Z,8.10
2019-03-30T01:30:29.087Z,8.00
2019-03-30T01:32:57.076Z,8.00
2019-03-30T01:35:25.249Z,7.90
2019-03-30T01:37:53.097Z,7.90
2019-03-30T01:40:21.122Z,8.00
2019-03-30T01:42:49.105Z,7.90
2019-03-30T01:45:17.109Z,7.60
2019-03-30T01:47:45.099Z,7.70
2019-03-30T01:50:17.703Z,7.70
2019-03-30T01:52:41.103Z,7.80
2019-03-30T01:55:09.095Z,8.00
2019-03-30T01:57:37.076Z,8.20
2019-03-30T02:00:05.869Z,7.90
2019-03-30T02:02:33.861Z,8.10
2019-03-30T02:05:01.844Z,8.30
2019-03-30T02:07:29.867Z,8.40
2019-03-30T02:09:57.860Z,8.30
2019-03-30T02:12:25.849Z,8.40
2019-03-30T02:14:54.316Z,8.40
2019-03-30T02:17:22.296Z,8.30
2019-03-30T02:19:50.295Z,8.20
2019-03-30T02:22:18.317Z,8.20
2019-03-30T02:24:46.310Z,8.20
2019-03-30T02:27:14.300Z,8.20
2019-03-30T02:29:42.299Z,8.10
2019-03-30T02:32:10.286Z,8.20
2019-03-30T02:34:38.244Z,8.10
2019-03-30T02:37:06.262Z,8.10
2019-03-30T02:39:34.229Z,8.10
2019-03-30T02:42:02.217Z,7.90
2019-03-30T02:44:30.235Z,7.80
2019-03-30T02:46:58.226Z,7.80
2019-03-30T02:49:26.197Z,7.80
2019-03-30T02:51:54.212Z,7.80
2019-03-30T02:54:22.195Z,7.70
2019-03-30T02:56:50.234Z,7.70
2019-03-30T02:59:18.221Z,7.70
2019-03-30T03:01:46.242Z,7.70
2019-03-30T03:04:14.235Z,7.60
2019-03-30T03:06:42.240Z,7.50
2019-03-30T03:09:10.217Z,7.50
2019-03-30T03:11:38.249Z,7.50
2019-03-30T03:14:06.285Z,7.90
2019-03-30T03:16:34.491Z,7.50
2019-03-30T03:19:02.462Z,7.40
2019-03-30T03:21:30.482Z,7.60
2019-03-30T03:23:58.441Z,7.40
2019-03-30T03:26:26.428Z,7.50
2019-03-30T03:28:54.420Z,7.30
2019-03-30T03:31:22.405Z,7.30
2019-03-30T03:33:50.432Z,7.30
2019-03-30T03:36:18.431Z,7.30
2019-03-30T03:38:46.427Z,7.70
2019-03-30T03:41:14.409Z,7.40
2019-03-30T03:43:42.515Z,7.40
2019-03-30T03:46:10.388Z,7.40
2019-03-30T03:48:38.382Z,7.40
2019-03-30T03:51:24.548Z,7.30
2019-03-30T03:53:34.396Z,5.50
2019-03-30T03:56:03.089Z,6.30
2019-03-30T03:58:32.864Z,7.20
2019-03-30T04:01:01.702Z,7.30
2019-03-30T04:03:30.674Z,7.30
2019-03-30T04:05:58.752Z,7.20
2019-03-30T04:08:27.048Z,7.20
2019-03-30T04:10:55.035Z,7.30
2019-03-30T04:13:23.055Z,7.20
2019-03-30T04:15:51.040Z,7.20
2019-03-30T04:18:20.405Z,7.30
2019-03-30T04:20:48.415Z,9.00
2019-03-30T04:23:16.408Z,7.10
2019-03-30T04:25:44.422Z,7.30
2019-03-30T04:28:12.436Z,7.20
2019-03-30T04:30:40.414Z,7.00
2019-03-30T04:33:08.397Z,6.90
2019-03-30T04:35:36.431Z,6.90
2019-03-30T04:38:04.425Z,6.80
2019-03-30T04:40:32.402Z,6.90
2019-03-30T04:43:00.405Z,6.70
2019-03-30T04:45:28.395Z,6.70
2019-03-30T04:47:56.389Z,6.60
2019-03-30T04:50:24.405Z,6.60
2019-03-30T04:52:52.393Z,6.70
2019-03-30T04:55:20.368Z,6.60
2019-03-30T04:57:49.718Z,6.80
2019-03-30T05:00:16.402Z,6.60
2019-03-30T05:02:44.397Z,6.70
2019-03-30T05:05:12.392Z,6.70
2019-03-30T05:07:40.421Z,6.70
2019-03-30T05:10:08.429Z,6.80
2019-03-30T05:12:36.431Z,6.60
2019-03-30T05:15:04.488Z,6.50
2019-03-30T05:17:46.355Z,6.60
2019-03-30T05:20:00.701Z,6.50
2019-03-30T05:22:28.733Z,6.50
2019-03-30T05:24:56.738Z,7.50
2019-03-30T05:27:24.789Z,6.50
2019-03-30T05:29:52.792Z,6.50
2019-03-30T05:32:20.779Z,6.70
2019-03-30T05:34:48.780Z,6.60
2019-03-30T05:37:16.754Z,6.60
2019-03-30T05:39:44.736Z,6.60
2019-03-30T05:42:12.764Z,6.70
2019-03-30T05:44:40.779Z,6.70
2019-03-30T05:47:08.829Z,6.70
2019-03-30T05:49:36.748Z,6.80
2019-03-30T05:52:04.748Z,6.70
2019-03-30T05:54:32.756Z,4.20
2019-03-30T05:57:00.744Z,6.80
2019-03-30T05:59:28.725Z,6.80
2019-03-30T06:01:56.700Z,6.70
2019-03-30T06:04:24.703Z,7.00
2019-03-30T06:06:52.722Z,7.00
2019-03-30T06:09:20.700Z,7.00
2019-03-30T06:11:48.698Z,7.10
2019-03-30T06:14:16.853Z,7.20
2019-03-30T06:16:44.820Z,7.20
2019-03-30T06:19:12.813Z,7.30
2019-03-30T06:21:42.017Z,7.60
2019-03-30T06:24:10.001Z,5.80
2019-03-30T06:26:37.993Z,7.50
2019-03-30T06:29:05.997Z,7.60
2019-03-30T06:31:34.033Z,7.60
2019-03-30T06:34:02.029Z,7.70
2019-03-30T06:36:30.021Z,7.80
2019-03-30T06:38:58.007Z,8.10
2019-03-30T06:41:26.017Z,8.20
2019-03-30T06:43:54.001Z,8.30
2019-03-30T06:46:21.972Z,8.30
2019-03-30T06:48:49.968Z,8.80
2019-03-30T06:51:18.017Z,8.70
2019-03-30T06:53:46.009Z,9.00
2019-03-30T06:56:14.012Z,9.50
2019-03-30T06:58:41.976Z,9.40
2019-03-30T07:01:09.978Z,9.50
2019-03-30T07:03:37.998Z,9.70
2019-03-30T07:06:05.971Z,9.90
2019-03-30T07:08:33.987Z,10.00
2019-03-30T07:11:02.014Z,10.10
2019-03-30T07:13:30.006Z,10.30
2019-03-30T07:15:57.984Z,10.40
2019-03-30T07:18:26.009Z,10.50
2019-03-30T07:20:54.475Z,10.60
2019-03-30T07:23:23.836Z,10.80
2019-03-30T07:25:51.865Z,10.90
2019-03-30T07:28:19.871Z,11.10
2019-03-30T07:30:48.561Z,11.20
2019-03-30T07:33:16.578Z,11.50
2019-03-30T07:35:44.684Z,11.50
2019-03-30T07:38:12.684Z,11.70
2019-03-30T07:40:40.687Z,11.90
2019-03-30T07:43:08.664Z,12.00
2019-03-30T07:45:36.633Z,12.20
2019-03-30T07:48:04.659Z,12.20
2019-03-30T07:50:32.665Z,12.40
2019-03-30T07:53:00.645Z,12.50
2019-03-30T07:55:28.649Z,12.70
2019-03-30T07:57:56.665Z,12.90
2019-03-30T08:00:30.612Z,13.00
2019-03-30T08:02:52.982Z,13.20
2019-03-30T08:05:21.223Z,13.20
2019-03-30T08:07:49.329Z,13.40
2019-03-30T08:10:17.661Z,13.60
2019-03-30T08:12:45.897Z,13.40
2019-03-30T08:15:13.941Z,13.70
2019-03-30T08:17:41.940Z,13.90
2019-03-30T08:20:10.120Z,14.10
2019-03-30T08:22:38.172Z,14.40
2019-03-30T08:25:06.519Z,14.60
2019-03-30T08:27:34.698Z,14.90
2019-03-30T08:30:02.723Z,15.00
2019-03-30T08:32:30.744Z,15.30
2019-03-30T08:34:58.722Z,15.10
2019-03-30T08:37:26.736Z,15.30
2019-03-30T08:39:54.736Z,15.40
2019-03-30T08:42:22.715Z,15.60
2019-03-30T08:44:50.690Z,15.90
2019-03-30T08:47:18.796Z,16.10
2019-03-30T08:49:46.792Z,16.10
2019-03-30T08:52:14.789Z,16.30
2019-03-30T08:54:42.801Z,16.50
2019-03-30T08:57:10.793Z,16.30
2019-03-30T08:59:38.813Z,16.50
2019-03-30T09:02:06.852Z,16.60
2019-03-30T09:04:34.844Z,17.00
2019-03-30T09:07:03.170Z,16.90
2019-03-30T09:09:31.273Z,15.90
2019-03-30T09:11:59.268Z,17.40
2019-03-30T09:14:27.268Z,17.80
2019-03-30T09:16:55.617Z,18.50
2019-03-30T09:19:23.588Z,18.90
2019-03-30T09:21:51.680Z,19.70
2019-03-30T09:24:20.315Z,20.10
2019-03-30T09:26:49.900Z,20.90
2019-03-30T09:29:18.197Z,21.20
2019-03-30T09:31:46.300Z,20.00
2019-03-30T09:34:14.510Z,21.20
2019-03-30T09:36:42.642Z,22.70
2019-03-30T09:39:10.555Z,21.60
2019-03-30T09:41:38.545Z,22.90
2019-03-30T09:44:06.517Z,23.20
2019-03-30T09:46:34.513Z,23.30
2019-03-30T09:49:02.492Z,23.20
2019-03-30T09:51:30.484Z,23.20
2019-03-30T09:53:58.485Z,23.20
2019-03-30T09:56:26.487Z,23.20
2019-03-30T09:58:54.469Z,23.60
2019-03-30T10:01:22.476Z,23.20
2019-03-30T10:03:50.563Z,23.50
2019-03-30T10:06:18.560Z,23.80
2019-03-30T10:08:46.605Z,23.80
2019-03-30T10:11:14.592Z,23.60
2019-03-30T10:13:42.635Z,23.60
2019-03-30T10:16:10.645Z,23.50
2019-03-30T10:18:38.633Z,23.50
2019-03-30T10:21:06.621Z,23.40
2019-03-30T10:23:34.632Z,23.70
2019-03-30T10:26:02.629Z,24.10
2019-03-30T10:28:30.878Z,23.90
2019-03-30T10:30:58.869Z,24.00
2019-03-30T10:33:26.848Z,24.10
2019-03-30T10:35:54.940Z,23.90
2019-03-30T10:38:22.992Z,24.20
2019-03-30T10:40:50.980Z,24.30
2019-03-30T10:43:19.039Z,24.10
2019-03-30T10:45:47.047Z,24.40
2019-03-30T10:48:15.055Z,24.50
2019-03-30T10:50:43.080Z,24.30
2019-03-30T10:53:11.079Z,24.50
2019-03-30T10:55:39.062Z,24.80
2019-03-30T10:58:07.037Z,25.00
2019-03-30T11:00:38.478Z,25.30
2019-03-30T11:03:06.463Z,25.30
2019-03-30T11:05:34.485Z,25.10
2019-03-30T11:08:02.496Z,25.00
2019-03-30T11:10:30.491Z,25.10
2019-03-30T11:12:58.468Z,25.40
2019-03-30T11:15:26.476Z,25.30
2019-03-30T11:17:54.472Z,25.20
2019-03-30T11:20:22.448Z,25.10
2019-03-30T11:22:50.429Z,24.90
2019-03-30T11:25:18.423Z,25.10
2019-03-30T11:27:46.433Z,25.40
2019-03-30T11:30:15.795Z,25.30
2019-03-30T11:32:43.769Z,25.00
2019-03-30T11:35:11.764Z,24.90
2019-03-30T11:37:39.864Z,25.00
2019-03-30T11:40:07.882Z,25.10
2019-03-30T11:42:35.856Z,25.40
2019-03-30T11:45:04.072Z,25.40
2019-03-30T11:47:32.127Z,25.60
2019-03-30T11:50:00.722Z,25.70
2019-03-30T11:52:28.719Z,25.80
2019-03-30T11:54:56.725Z,25.60
2019-03-30T11:57:25.322Z,25.20
2019-03-30T11:59:53.376Z,25.60
2019-03-30T12:02:27.747Z,25.50
2019-03-30T12:04:49.336Z,25.40
2019-03-30T12:07:17.430Z,25.60
2019-03-30T12:09:45.434Z,25.50
2019-03-30T12:12:13.644Z,25.50
2019-03-30T12:14:42.088Z,25.50
2019-03-30T12:17:10.065Z,25.40
2019-03-30T12:19:38.043Z,25.50
2019-03-30T12:22:06.101Z,25.40
2019-03-30T12:24:34.085Z,25.60
2019-03-30T12:27:02.079Z,25.60
2019-03-30T12:29:30.113Z,25.40
2019-03-30T12:31:58.405Z,25.60
2019-03-30T12:34:26.379Z,25.20
2019-03-30T12:36:55.969Z,25.30
2019-03-30T12:39:22.459Z,25.10
2019-03-30T12:41:50.455Z,25.10
2019-03-30T12:44:18.460Z,23.40
2019-03-30T12:46:46.469Z,25.00
2019-03-30T12:49:14.469Z,24.80
2019-03-30T12:51:42.512Z,24.70
2019-03-30T12:54:10.494Z,24.70
2019-03-30T12:56:38.463Z,24.50
2019-03-30T12:59:06.455Z,24.40
2019-03-30T13:01:34.686Z,24.50
2019-03-30T13:04:02.662Z,24.40
2019-03-30T13:06:30.667Z,22.50
2019-03-30T13:08:58.684Z,24.10
2019-03-30T13:11:26.649Z,24.10
2019-03-30T13:13:54.641Z,24.40
2019-03-30T13:16:22.615Z,24.40
2019-03-30T13:18:50.609Z,24.40
2019-03-30T13:21:18.596Z,24.40
2019-03-30T13:23:46.608Z,24.10
2019-03-30T13:26:14.927Z,23.70
2019-03-30T13:28:42.913Z,23.60
2019-03-30T13:31:10.892Z,23.70
2019-03-30T13:33:39.108Z,23.80
2019-03-30T13:36:10.509Z,23.90
2019-03-30T13:38:35.990Z,24.00
2019-03-30T13:41:03.951Z,24.00
2019-03-30T13:43:33.212Z,23.70
2019-03-30T13:49:11.341Z,23.50
2019-03-30T13:51:39.312Z,23.50
2019-03-30T13:54:07.284Z,23.50
2019-03-30T13:56:35.272Z,23.60
2019-03-30T13:59:03.268Z,23.40
2019-03-30T14:01:31.249Z,23.20
2019-03-30T14:03:59.224Z,23.30
2019-03-30T14:06:27.192Z,21.00
2019-03-30T14:08:55.158Z,22.70
2019-03-30T14:11:23.177Z,22.50
2019-03-30T14:13:51.193Z,22.50
2019-03-30T14:16:19.251Z,22.40
2019-03-30T14:18:47.971Z,24.60
2019-03-30T14:21:15.953Z,22.70
2019-03-30T14:23:44.008Z,22.80
2019-03-30T14:26:31.815Z,22.70
2019-03-30T14:28:58.427Z,22.60
2019-03-30T14:31:27.162Z,22.40
2019-03-30T14:33:56.615Z,22.30
2019-03-30T14:36:24.619Z,22.10
2019-03-30T14:38:52.612Z,22.10
2019-03-30T14:41:20.587Z,22.10
2019-03-30T14:43:48.561Z,22.20
2019-03-30T14:46:16.540Z,22.20
2019-03-30T14:48:44.533Z,22.20
2019-03-30T14:51:12.503Z,22.30
2019-03-30T14:53:40.672Z,22.30
2019-03-30T14:56:09.003Z,22.20
2019-03-30T14:58:37.976Z,22.20
2019-03-30T15:01:05.948Z,22.20
2019-03-30T15:09:48.344Z,21.90
2019-03-30T15:15:53.915Z,21.80
2019-03-30T15:18:37.699Z,21.70
2019-03-30T15:21:12.754Z,21.70
2019-03-30T15:23:40.754Z,21.70
2019-03-30T15:26:08.724Z,21.70
2019-03-30T15:28:36.749Z,21.60
2019-03-30T15:31:04.819Z,21.60
2019-03-30T15:33:32.822Z,21.60
2019-03-30T15:36:03.056Z,21.50
2019-03-30T15:38:31.029Z,21.40
2019-03-30T15:40:59.030Z,21.30
2019-03-30T15:43:37.614Z,21.30
2019-03-30T15:45:55.087Z,21.10
2019-03-30T15:48:23.074Z,21.10
2019-03-30T15:50:51.055Z,21.00
2019-03-30T15:53:19.353Z,21.00
2019-03-30T15:55:47.339Z,21.00
2019-03-30T15:58:15.333Z,21.00
2019-03-30T16:00:43.305Z,20.90
2019-03-30T16:03:11.324Z,20.90
2019-03-30T16:05:39.307Z,20.90
2019-03-30T16:08:07.347Z,20.80
2019-03-30T16:10:35.445Z,20.80
2019-03-30T16:13:03.455Z,20.80
2019-03-30T16:15:31.440Z,20.70
2019-03-30T16:17:59.456Z,20.70
2019-03-30T16:20:27.469Z,20.70
2019-03-30T16:22:55.469Z,20.60
2019-03-30T16:25:23.536Z,20.60
2019-03-30T16:27:51.543Z,20.50
2019-03-30T16:30:19.814Z,20.50
2019-03-30T16:32:47.883Z,20.50
2019-03-30T16:35:15.939Z,20.40
2019-03-30T16:37:45.471Z,20.30
2019-03-30T16:40:13.451Z,20.30
2019-03-30T16:42:41.439Z,20.30
2019-03-30T16:45:09.844Z,20.20
2019-03-30T16:47:37.795Z,20.10
2019-03-30T16:50:06.192Z,20.10
2019-03-30T16:52:34.219Z,19.90
2019-03-30T16:55:02.212Z,20.00
2019-03-30T16:57:42.431Z,18.80
2019-03-30T16:59:58.256Z,19.90
2019-03-30T17:02:26.217Z,19.80
2019-03-30T17:04:54.191Z,19.80
2019-03-30T17:07:22.167Z,19.80
2019-03-30T17:09:50.147Z,19.60
2019-03-30T17:12:18.133Z,19.60
2019-03-30T17:14:46.115Z,19.60
2019-03-30T17:17:16.880Z,19.60
2019-03-30T17:19:44.875Z,19.50
2019-03-30T17:22:12.868Z,19.40
2019-03-30T17:24:41.156Z,19.30
2019-03-30T17:27:09.156Z,19.30
2019-03-30T17:29:37.183Z,19.20
2019-03-30T17:32:05.165Z,19.10
2019-03-30T17:34:33.181Z,19.00
2019-03-30T17:37:01.199Z,18.80
2019-03-30T17:39:29.622Z,18.70
2019-03-30T17:41:57.678Z,18.60
2019-03-30T17:44:25.672Z,19.60
2019-03-30T17:46:53.644Z,18.30
2019-03-30T17:49:21.668Z,18.20
2019-03-30T17:51:49.644Z,18.00
2019-03-30T17:54:17.601Z,17.90
2019-03-30T17:56:45.616Z,17.80
2019-03-30T17:59:13.641Z,17.80
2019-03-30T18:01:42.411Z,17.70
2019-03-30T18:04:10.400Z,17.50
2019-03-30T18:06:38.366Z,17.40
2019-03-30T18:09:06.480Z,17.40
2019-03-30T18:11:34.480Z,17.30
2019-03-30T18:14:02.501Z,17.30
2019-03-30T18:16:30.499Z,17.40
2019-03-30T18:18:58.536Z,17.40
2019-03-30T18:21:26.523Z,17.40
2019-03-30T18:23:54.492Z,17.40
2019-03-30T18:26:22.479Z,17.30
2019-03-30T18:28:50.472Z,17.20
2019-03-30T18:31:18.479Z,17.00
2019-03-30T18:33:46.597Z,16.90
2019-03-30T18:36:15.704Z,16.80
2019-03-30T18:38:44.197Z,16.80
2019-03-30T18:41:13.661Z,16.80
2019-03-30T18:43:41.659Z,16.90
2019-03-30T18:46:09.608Z,16.90
2019-03-30T18:48:37.655Z,16.80
2019-03-30T18:51:05.651Z,16.60
2019-03-30T18:53:33.665Z,16.60
2019-03-30T18:56:01.638Z,16.50
2019-03-30T18:58:41.079Z,16.40
2019-03-30T19:00:57.608Z,16.30
2019-03-30T19:03:25.620Z,16.20
2019-03-30T19:05:53.599Z,16.20
2019-03-30T19:08:21.618Z,16.20
2019-03-30T19:10:49.617Z,16.10
2019-03-30T19:13:17.602Z,16.10
2019-03-30T19:15:45.623Z,15.90
2019-03-30T19:18:13.617Z,15.90
2019-03-30T19:20:41.605Z,15.90
2019-03-30T19:23:09.594Z,16.00
2019-03-30T19:25:37.589Z,16.00
2019-03-30T19:28:05.581Z,16.00
2019-03-30T19:30:33.548Z,16.00
2019-03-30T19:33:01.840Z,16.00
2019-03-30T19:35:29.827Z,15.90
2019-03-30T19:37:57.845Z,15.80
2019-03-30T19:40:25.866Z,15.60
2019-03-30T19:42:55.334Z,15.20
2019-03-30T19:45:23.310Z,15.20
2019-03-30T19:47:51.290Z,15.00
2019-03-30T19:50:19.267Z,15.00
2019-03-30T19:52:47.291Z,15.00
2019-03-30T19:55:15.306Z,14.90
2019-03-30T19:57:43.281Z,14.90
2019-03-30T20:00:11.880Z,14.90
2019-03-30T20:02:39.883Z,14.90
2019-03-30T20:05:07.840Z,14.90
2019-03-30T20:07:35.813Z,14.80
2019-03-30T20:10:04.121Z,14.70
2019-03-30T20:12:32.211Z,14.50
2019-03-30T20:15:00.154Z,14.40
2019-03-30T20:17:28.077Z,14.40
2019-03-30T20:19:56.059Z,14.30
2019-03-30T20:22:24.032Z,14.20
2019-03-30T20:24:52.074Z,14.30
2019-03-30T20:27:20.027Z,14.20
2019-03-30T20:29:47.997Z,14.20
2019-03-30T20:32:15.999Z,14.20
2019-03-30T20:34:43.994Z,12.20
2019-03-30T20:37:11.975Z,14.30
2019-03-30T20:39:40.013Z,14.40
2019-03-30T20:42:07.989Z,14.40
2019-03-30T20:44:37.200Z,14.40
2019-03-30T20:47:05.264Z,14.30
2019-03-30T20:49:33.187Z,14.30
2019-03-30T20:52:01.152Z,14.10
2019-03-30T20:54:29.138Z,13.90
2019-03-30T20:56:57.112Z,13.70
2019-03-30T20:59:39.016Z,13.60
2019-03-30T21:01:53.065Z,13.60
2019-03-30T21:04:21.049Z,13.60
2019-03-30T21:06:49.026Z,13.60
2019-03-30T21:09:17.021Z,13.40
2019-03-30T21:11:44.983Z,13.30
2019-03-30T21:14:12.952Z,13.20
2019-03-30T21:16:41.008Z,13.20
2019-03-30T21:19:08.990Z,13.00
2019-03-30T21:21:36.958Z,13.00
2019-03-30T21:24:04.964Z,12.80
2019-03-30T21:26:32.975Z,12.70
2019-03-30T21:29:00.941Z,12.70
2019-03-30T21:31:29.044Z,12.60
2019-03-30T21:33:57.092Z,12.60
2019-03-30T21:36:25.212Z,12.50
2019-03-30T21:38:53.213Z,12.50
2019-03-30T21:41:21.199Z,12.60
2019-03-30T21:43:49.177Z,12.40
2019-03-30T21:46:17.459Z,12.40
2019-03-30T21:48:45.435Z,12.40
2019-03-30T21:51:13.412Z,12.40
2019-03-30T21:53:41.428Z,12.40
2019-03-30T21:56:09.400Z,12.40
2019-03-30T21:58:37.386Z,12.50
2019-03-30T22:01:05.380Z,12.40
2019-03-30T22:03:33.343Z,12.30
2019-03-30T22:06:01.327Z,12.30
2019-03-30T22:08:29.344Z,12.30
2019-03-30T22:10:57.328Z,12.20
2019-03-30T22:13:25.303Z,12.20
2019-03-30T22:15:53.301Z,12.10
2019-03-30T22:18:21.284Z,12.10
2019-03-30T22:20:49.288Z,12.10
2019-03-30T22:23:17.292Z,12.10
2019-03-30T22:25:45.265Z,12.10
2019-03-30T22:28:13.231Z,12.00
2019-03-30T22:30:41.227Z,12.00
2019-03-30T22:33:09.217Z,12.00
2019-03-30T22:35:37.200Z,12.00
2019-03-30T22:38:05.201Z,11.90
2019-03-30T22:40:33.168Z,11.90
2019-03-30T22:43:01.167Z,11.80
2019-03-30T22:45:29.169Z,11.80
2019-03-30T22:47:57.736Z,11.70
2019-03-30T22:50:25.749Z,11.60
2019-03-30T22:52:53.739Z,11.70
2019-03-30T22:55:21.715Z,11.50
2019-03-30T22:57:49.769Z,11.60
2019-03-30T23:00:39.490Z,11.50
2019-03-30T23:03:07.329Z,11.50
2019-03-30T23:05:35.691Z,11.40
2019-03-30T23:08:03.808Z,11.30
2019-03-30T23:10:31.829Z,11.20
2019-03-30T23:12:59.835Z,11.10
2019-03-30T23:15:27.870Z,11.10
2019-03-30T23:17:55.864Z,11.10
2019-03-30T23:20:23.856Z,11.00
2019-03-30T23:22:52.016Z,11.00
2019-03-30T23:25:20.037Z,11.00
2019-03-30T23:27:48.032Z,10.90
2019-03-30T23:30:16.044Z,10.90
2019-03-30T23:32:44.023Z,10.80
2019-03-30T23:35:12.032Z,10.90
2019-03-30T23:37:40.060Z,10.80
2019-03-30T23:40:08.075Z,10.70
2019-03-30T23:42:36.049Z,10.70
2019-03-30T23:45:04.349Z,10.70
2019-03-30T23:47:32.848Z,10.70
2019-03-30T23:50:01.047Z,10.60
2019-03-30T23:52:29.248Z,10.60
2019-03-30T23:54:57.290Z,10.50
2019-03-30T23:57:25.273Z,10.50
2019-03-30T23:59:53.281Z,10.40
